createdAt,value
2023-11-21T00:02:40.717Z,8.19
2023-11-21T00:05:42.327Z,8.19
2023-11-21T00:08:43.758Z,8.19
2023-11-21T00:11:45.788Z,8.20
2023-11-21T00:14:47.886Z,8.18
2023-11-21T00:17:50.331Z,8.15
2023-11-21T00:20:51.832Z,8.14
2023-11-21T00:23:53.478Z,8.13
2023-11-21T00:26:54.869Z,8.12
2023-11-21T00:29:56.453Z,8.10
2023-11-21T00:32:58.067Z,8.07
2023-11-21T00:35:59.748Z,8.06
2023-11-21T00:39:03.124Z,8.07
2023-11-21T00:42:05.579Z,8.03
2023-11-21T00:45:07.943Z,8.05
2023-11-21T00:48:09.484Z,8.08
2023-11-21T00:51:11.117Z,8.07
2023-11-21T00:54:12.758Z,8.07
2023-11-21T00:57:14.668Z,8.06
2023-11-21T01:00:18.495Z,8.04
2023-11-21T01:03:20.712Z,8.06
2023-11-21T01:06:22.504Z,8.03
2023-11-21T01:09:24.660Z,7.97
2023-11-21T01:12:26.586Z,7.96
2023-11-21T01:15:28.913Z,8.00
2023-11-21T01:18:30.391Z,8.01
2023-11-21T01:21:32.660Z,8.00
2023-11-21T01:24:34.085Z,8.00
2023-11-21T01:27:35.836Z,7.99
2023-11-21T01:30:38.140Z,7.99
2023-11-21T01:33:39.553Z,8.03
2023-11-21T01:36:40.945Z,8.04
2023-11-21T01:39:42.404Z,8.01
2023-11-21T01:42:44.179Z,8.00
2023-11-21T01:45:49.167Z,7.98
2023-11-21T01:48:51.123Z,7.98
2023-11-21T01:51:52.762Z,7.95
2023-11-21T01:54:54.684Z,7.90
2023-11-21T01:57:59.891Z,7.90
2023-11-21T02:01:01.442Z,7.87
2023-11-21T02:04:03.780Z,7.87
2023-11-21T02:07:08.212Z,7.89
2023-11-21T02:10:10.045Z,7.89
2023-11-21T02:13:11.913Z,7.86
2023-11-21T02:16:14.259Z,7.83
2023-11-21T02:19:25.982Z,7.82
2023-11-21T02:22:36.541Z,7.81
2023-11-21T02:25:38.004Z,7.76
2023-11-21T02:28:39.541Z,7.75
2023-11-21T02:31:48.504Z,7.76
2023-11-21T02:34:50.676Z,7.79
2023-11-21T02:37:53.241Z,7.80
2023-11-21T02:40:55.023Z,7.81
2023-11-21T02:43:56.515Z,7.88
2023-11-21T02:46:58.558Z,7.92
2023-11-21T02:50:00.302Z,7.91
2023-11-21T02:53:02.176Z,7.93
2023-11-21T02:56:03.827Z,7.89
2023-11-21T02:59:05.617Z,7.90
2023-11-21T03:02:09.433Z,7.91
2023-11-21T03:05:11.507Z,7.93
2023-11-21T03:08:12.901Z,7.94
2023-11-21T03:11:15.065Z,7.89
2023-11-21T03:14:16.714Z,7.89
2023-11-21T03:17:18.154Z,7.86
2023-11-21T03:20:20.117Z,7.85
2023-11-21T03:23:21.616Z,7.89
2023-11-21T03:26:23.233Z,7.92
2023-11-21T03:29:24.677Z,7.93
2023-11-21T03:32:26.208Z,7.96
2023-11-21T03:35:28.534Z,7.95
2023-11-21T03:38:30.158Z,7.95
2023-11-21T03:41:31.531Z,7.97
2023-11-21T03:44:33.058Z,7.98
2023-11-21T03:47:34.969Z,7.99
2023-11-21T03:50:36.457Z,7.99
2023-11-21T03:53:37.856Z,8.03
2023-11-21T03:56:39.261Z,8.08
2023-11-21T03:59:42.082Z,8.08
2023-11-21T04:02:43.870Z,8.04
2023-11-21T04:05:46.749Z,8.02
2023-11-21T04:08:48.216Z,8.03
2023-11-21T04:11:49.652Z,8.03
2023-11-21T04:14:52.166Z,8.01
2023-11-21T04:17:54.637Z,7.99
2023-11-21T04:20:56.066Z,8.00
2023-11-21T04:23:57.442Z,7.98
2023-11-21T04:26:59.064Z,7.97
2023-11-21T04:30:00.526Z,7.95
2023-11-21T04:33:03.592Z,7.93
2023-11-21T04:36:05.687Z,7.95
2023-11-21T04:39:07.702Z,7.97
2023-11-21T04:42:09.137Z,7.98
2023-11-21T04:45:12.151Z,7.99
2023-11-21T04:48:13.793Z,7.97
2023-11-21T04:51:15.388Z,7.95
2023-11-21T04:54:17.013Z,7.95
2023-11-21T04:57:18.752Z,7.98
2023-11-21T05:00:21.812Z,7.99
2023-11-21T05:03:24.612Z,7.99
2023-11-21T05:06:26.353Z,7.95
2023-11-21T05:09:29.010Z,7.94
2023-11-21T05:12:38.419Z,7.88
2023-11-21T05:15:40.497Z,7.78
2023-11-21T05:18:42.134Z,7.63
2023-11-21T05:21:43.727Z,7.54
2023-11-21T05:24:45.303Z,7.46
2023-11-21T05:27:47.796Z,7.41
2023-11-21T05:30:51.963Z,7.32
2023-11-21T05:33:56.390Z,7.29
2023-11-21T05:36:58.981Z,7.29
2023-11-21T05:40:05.485Z,7.24
2023-11-21T05:43:07.741Z,7.15
2023-11-21T05:46:09.828Z,7.15
2023-11-21T05:49:11.544Z,7.21
2023-11-21T05:52:13.094Z,7.18
2023-11-21T05:55:14.907Z,7.16
2023-11-21T05:58:16.579Z,7.14
2023-11-21T06:01:18.101Z,7.13
2023-11-21T06:04:19.788Z,7.11
2023-11-21T06:07:21.522Z,7.09
2023-11-21T06:10:24.541Z,7.08
2023-11-21T06:13:26.793Z,7.04
2023-11-21T06:16:28.514Z,7.04
2023-11-21T06:19:30.011Z,7.00
2023-11-21T06:22:31.794Z,6.94
2023-11-21T06:25:37.176Z,6.95
2023-11-21T06:28:38.766Z,6.93
2023-11-21T06:31:41.528Z,6.94
2023-11-21T06:34:43.107Z,6.96
2023-11-21T06:37:48.461Z,6.98
2023-11-21T06:40:49.961Z,7.03
2023-11-21T06:43:51.432Z,7.09
2023-11-21T06:46:53.119Z,7.13
2023-11-21T06:49:54.688Z,7.12
2023-11-21T06:52:56.287Z,7.06
2023-11-21T06:55:57.760Z,7.01
2023-11-21T06:58:59.266Z,7.00
2023-11-21T07:02:01.070Z,6.95
2023-11-21T07:05:02.967Z,6.93
2023-11-21T07:08:05.103Z,6.92
2023-11-21T07:11:06.623Z,6.92
2023-11-21T07:14:09.355Z,6.88
2023-11-21T07:17:15.156Z,6.86
2023-11-21T07:20:17.815Z,6.85
2023-11-21T07:23:19.245Z,6.86
2023-11-21T07:26:21.137Z,6.85
2023-11-21T07:29:26.212Z,6.78
2023-11-21T07:32:27.637Z,6.73
2023-11-21T07:35:29.096Z,6.70
2023-11-21T07:38:30.556Z,6.67
2023-11-21T07:41:33.015Z,6.65
2023-11-21T07:44:34.404Z,6.64
2023-11-21T07:47:36.360Z,6.64
2023-11-21T07:50:38.419Z,6.61
2023-11-21T07:53:40.053Z,6.59
2023-11-21T07:56:41.427Z,6.59
2023-11-21T07:59:42.866Z,6.57
2023-11-21T08:02:46.571Z,6.49
2023-11-21T08:05:48.183Z,6.43
2023-11-21T08:08:49.729Z,6.38
2023-11-21T08:11:52.587Z,6.34
2023-11-21T08:14:54.168Z,6.29
2023-11-21T08:17:55.609Z,6.25
2023-11-21T08:20:57.830Z,6.25
2023-11-21T08:23:59.271Z,6.26
2023-11-21T08:27:00.663Z,6.21
2023-11-21T08:30:04.103Z,6.20
2023-11-21T08:33:05.644Z,6.24
2023-11-21T08:36:09.462Z,6.22
2023-11-21T08:39:10.905Z,6.14
2023-11-21T08:42:12.456Z,6.06
2023-11-21T08:45:15.368Z,6.07
2023-11-21T08:48:16.857Z,6.06
2023-11-21T08:51:18.583Z,6.08
2023-11-21T08:54:20.705Z,6.07
2023-11-21T08:57:26.397Z,6.07
2023-11-21T09:00:27.928Z,6.00
2023-11-21T09:03:29.369Z,5.93
2023-11-21T09:06:30.911Z,5.91
2023-11-21T09:09:32.345Z,5.89
2023-11-21T09:12:35.641Z,5.87
2023-11-21T09:15:37.058Z,5.81
2023-11-21T09:18:38.476Z,5.79
2023-11-21T09:21:40.000Z,5.83
2023-11-21T09:24:41.682Z,5.84
2023-11-21T09:27:43.223Z,5.83
2023-11-21T09:30:44.702Z,5.78
2023-11-21T09:33:48.807Z,5.75
2023-11-21T09:36:50.388Z,5.71
2023-11-21T09:39:51.792Z,5.68
2023-11-21T09:42:57.247Z,5.66
2023-11-21T09:46:02.520Z,5.61
2023-11-21T09:49:06.458Z,5.56
2023-11-21T09:52:16.143Z,5.51
2023-11-21T09:55:20.730Z,5.48
2023-11-21T09:58:25.319Z,5.47
2023-11-21T10:01:28.932Z,5.43
2023-11-21T10:04:31.796Z,5.43
2023-11-21T10:07:35.139Z,5.39
2023-11-21T10:10:48.652Z,5.36
2023-11-21T10:13:54.571Z,5.36
2023-11-21T10:16:58.143Z,5.34
2023-11-21T10:20:00.361Z,5.31
2023-11-21T10:23:03.135Z,5.32
2023-11-21T10:26:11.345Z,5.28
2023-11-21T10:29:24.501Z,5.20
2023-11-21T10:32:32.892Z,5.14
2023-11-21T10:35:44.118Z,5.11
2023-11-21T10:38:50.810Z,5.11
2023-11-21T10:41:53.472Z,5.07
2023-11-21T10:44:55.889Z,5.06
2023-11-21T10:47:57.408Z,5.03
2023-11-21T10:50:59.404Z,4.98
2023-11-21T10:54:00.912Z,4.93
2023-11-21T10:57:04.886Z,4.92
2023-11-21T11:00:07.313Z,4.91
2023-11-21T11:03:16.009Z,4.85
2023-11-21T11:06:18.899Z,4.81
2023-11-21T11:09:21.176Z,4.83
2023-11-21T11:12:25.670Z,4.86
2023-11-21T11:15:28.576Z,4.87
2023-11-21T11:18:30.874Z,4.89
2023-11-21T11:22:05.027Z,4.89
2023-11-21T11:25:35.040Z,4.88
2023-11-21T11:28:47.644Z,4.81
2023-11-21T11:32:00.924Z,4.73
2023-11-21T11:35:17.343Z,4.73
2023-11-21T11:38:19.372Z,4.72
2023-11-21T11:41:30.362Z,4.68
2023-11-21T11:44:47.704Z,4.64
2023-11-21T11:47:57.907Z,4.63
2023-11-21T11:51:25.850Z,4.63
2023-11-21T11:54:37.206Z,4.60
2023-11-21T11:57:43.102Z,4.55
2023-11-21T12:00:46.888Z,4.54
2023-11-21T12:04:34.679Z,4.58
2023-11-21T12:08:00.464Z,4.55
2023-11-21T12:11:02.736Z,4.51
2023-11-21T12:14:06.178Z,4.51
2023-11-21T12:17:07.739Z,4.54
2023-11-21T12:20:18.926Z,4.53
2023-11-21T12:23:21.552Z,4.48
2023-11-21T12:26:25.165Z,4.43
2023-11-21T12:29:26.620Z,4.41
2023-11-21T12:32:28.175Z,4.36
2023-11-21T12:35:34.487Z,4.33
2023-11-21T12:38:36.084Z,4.34
2023-11-21T12:41:37.469Z,4.40
2023-11-21T12:44:41.615Z,4.38
2023-11-21T12:47:44.485Z,4.28
2023-11-21T12:50:49.632Z,4.25
2023-11-21T12:53:51.558Z,4.25
2023-11-21T12:56:52.969Z,4.26
2023-11-21T12:59:58.763Z,4.25
2023-11-21T13:03:00.769Z,4.24
2023-11-21T13:06:03.045Z,4.23
2023-11-21T13:09:05.613Z,4.19
2023-11-21T13:12:09.224Z,4.12
2023-11-21T13:15:11.393Z,4.07
2023-11-21T13:18:13.644Z,4.05
2023-11-21T13:21:16.101Z,4.05
2023-11-21T13:24:18.710Z,4.03
2023-11-21T13:27:20.207Z,3.96
2023-11-21T13:30:27.276Z,3.95
2023-11-21T13:33:29.172Z,3.89
2023-11-21T13:36:33.880Z,3.85
2023-11-21T13:39:36.231Z,3.82
2023-11-21T13:42:37.813Z,3.77
2023-11-21T13:45:45.905Z,3.77
2023-11-21T13:48:51.301Z,3.75
2023-11-21T13:51:55.612Z,3.72
2023-11-21T13:54:57.083Z,3.75
2023-11-21T13:57:59.686Z,3.72
2023-11-21T14:01:02.405Z,3.64
2023-11-21T14:04:16.470Z,3.59
2023-11-21T14:07:23.288Z,3.55
2023-11-21T14:10:25.137Z,3.50
2023-11-21T14:13:29.227Z,3.47
2023-11-21T14:16:30.851Z,3.47
2023-11-21T14:19:33.158Z,3.44
2023-11-21T14:22:35.017Z,3.46
2023-11-21T14:25:37.939Z,3.41
2023-11-21T14:28:39.951Z,3.38
2023-11-21T14:31:42.227Z,3.40
2023-11-21T14:34:47.591Z,3.39
2023-11-21T14:37:49.076Z,3.31
2023-11-21T14:40:50.752Z,3.33
2023-11-21T14:43:52.891Z,3.35
2023-11-21T14:46:57.106Z,3.37
2023-11-21T14:50:19.615Z,3.36
2023-11-21T14:53:41.082Z,3.32
2023-11-21T14:56:45.453Z,3.28
2023-11-21T14:59:58.508Z,3.25
2023-11-21T15:03:00.965Z,3.19
2023-11-21T15:06:24.843Z,3.17
2023-11-21T15:09:32.392Z,3.17
2023-11-21T15:12:34.695Z,3.15
2023-11-21T15:15:37.735Z,3.07
2023-11-21T15:18:39.514Z,2.99
2023-11-21T15:21:40.977Z,2.93
2023-11-21T15:24:45.336Z,2.90
2023-11-21T15:27:49.834Z,2.85
2023-11-21T15:30:52.609Z,2.83
2023-11-21T15:33:54.411Z,2.80
2023-11-21T15:36:56.104Z,2.76
2023-11-21T15:39:58.382Z,2.72
2023-11-21T15:43:00.216Z,2.69
2023-11-21T15:46:07.199Z,2.69
2023-11-21T15:49:13.208Z,2.70
2023-11-21T15:52:14.678Z,2.72
2023-11-21T15:55:17.824Z,2.73
2023-11-21T15:58:19.241Z,2.75
2023-11-21T16:01:22.498Z,2.76
2023-11-21T16:04:27.254Z,2.71
2023-11-21T16:07:28.844Z,2.68
2023-11-21T16:10:32.865Z,2.66
2023-11-21T16:13:41.620Z,2.64
2023-11-21T16:16:43.061Z,2.59
2023-11-21T16:19:44.781Z,2.53
2023-11-21T16:22:46.430Z,2.49
2023-11-21T16:25:55.413Z,2.45
2023-11-21T16:28:57.070Z,2.44
2023-11-21T16:31:58.920Z,2.36
2023-11-21T16:35:01.868Z,2.36
2023-11-21T16:38:05.977Z,2.36
2023-11-21T16:41:10.136Z,2.33
2023-11-21T16:44:16.266Z,2.29
2023-11-21T16:47:25.747Z,2.31
2023-11-21T16:50:27.195Z,2.33
2023-11-21T16:53:28.702Z,2.33
2023-11-21T16:56:30.300Z,2.32
2023-11-21T16:59:32.012Z,2.32
2023-11-21T17:02:37.076Z,2.32
2023-11-21T17:05:38.722Z,2.32
2023-11-21T17:08:40.296Z,2.33
2023-11-21T17:11:41.799Z,2.33
2023-11-21T17:14:44.007Z,2.34
2023-11-21T17:17:45.773Z,2.32
2023-11-21T17:20:47.285Z,2.31
2023-11-21T17:23:49.186Z,2.33
2023-11-21T17:26:50.577Z,2.38
2023-11-21T17:29:53.662Z,2.39
2023-11-21T17:32:57.879Z,2.33
2023-11-21T17:35:59.589Z,2.30
2023-11-21T17:39:01.247Z,2.28
2023-11-21T17:42:03.129Z,2.25
2023-11-21T17:45:05.436Z,2.20
2023-11-21T17:48:07.802Z,2.17
2023-11-21T17:51:09.507Z,2.18
2023-11-21T17:54:11.045Z,2.20
2023-11-21T17:57:12.706Z,2.22
2023-11-21T18:00:14.424Z,2.24
2023-11-21T18:03:29.858Z,2.23
2023-11-21T18:06:33.695Z,2.21
2023-11-21T18:09:35.230Z,2.13
2023-11-21T18:12:45.727Z,2.06
2023-11-21T18:16:02.507Z,2.01
2023-11-21T18:19:04.131Z,1.97
2023-11-21T18:22:06.464Z,1.96
2023-11-21T18:25:08.406Z,2.01
2023-11-21T18:28:10.330Z,2.04
2023-11-21T18:31:12.399Z,2.04
2023-11-21T18:34:13.915Z,1.99
2023-11-21T18:37:15.338Z,1.98
2023-11-21T18:40:17.028Z,1.98
2023-11-21T18:43:18.808Z,1.96
2023-11-21T18:46:20.707Z,1.90
2023-11-21T18:49:22.190Z,1.91
2023-11-21T18:52:27.963Z,1.92
2023-11-21T18:55:30.105Z,1.93
2023-11-21T18:58:35.267Z,1.90
2023-11-21T19:01:37.222Z,1.93
2023-11-21T19:04:38.829Z,1.95
2023-11-21T19:07:40.541Z,1.94
2023-11-21T19:10:42.422Z,1.94
2023-11-21T19:13:44.306Z,1.95
2023-11-21T19:16:46.880Z,1.95
2023-11-21T19:19:48.642Z,1.93
2023-11-21T19:22:50.369Z,1.89
2023-11-21T19:25:51.822Z,1.84
2023-11-21T19:28:53.289Z,1.86
2023-11-21T19:31:55.447Z,1.85
2023-11-21T19:34:57.194Z,1.79
2023-11-21T19:37:58.817Z,1.79
2023-11-21T19:41:00.394Z,1.82
2023-11-21T19:44:02.290Z,1.79
2023-11-21T19:47:04.839Z,1.73
2023-11-21T19:50:10.633Z,1.72
2023-11-21T19:53:12.407Z,1.70
2023-11-21T19:56:14.435Z,1.71
2023-11-21T19:59:17.035Z,1.70
2023-11-21T20:02:18.697Z,1.68
2023-11-21T20:05:20.631Z,1.66
2023-11-21T20:08:22.129Z,1.62
2023-11-21T20:11:24.236Z,1.59
2023-11-21T20:14:26.995Z,1.61
2023-11-21T20:17:32.417Z,1.63
2023-11-21T20:20:34.063Z,1.65
2023-11-21T20:23:37.173Z,1.64
2023-11-21T20:26:42.100Z,1.63
2023-11-21T20:29:44.964Z,1.64
2023-11-21T20:32:46.724Z,1.60
2023-11-21T20:35:49.822Z,1.57
2023-11-21T20:38:52.558Z,1.54
2023-11-21T20:41:54.190Z,1.56
2023-11-21T20:44:56.754Z,1.59
2023-11-21T20:47:59.705Z,1.57
2023-11-21T20:51:01.776Z,1.60
2023-11-21T20:54:05.083Z,1.63
2023-11-21T20:57:10.442Z,1.63
2023-11-21T21:00:15.205Z,1.62
2023-11-21T21:03:16.769Z,1.61
2023-11-21T21:06:19.687Z,1.59
2023-11-21T21:09:22.274Z,1.60
2023-11-21T21:12:25.193Z,1.54
2023-11-21T21:15:26.960Z,1.51
2023-11-21T21:18:29.086Z,1.52
2023-11-21T21:21:32.424Z,1.53
2023-11-21T21:24:34.032Z,1.53
2023-11-21T21:27:37.037Z,1.54
2023-11-21T21:30:40.336Z,1.58
2023-11-21T21:33:44.168Z,1.60
2023-11-21T21:36:49.234Z,1.54
2023-11-21T21:39:50.765Z,1.52
2023-11-21T21:42:53.974Z,1.51
2023-11-21T21:45:55.354Z,1.47
2023-11-21T21:48:56.919Z,1.46
2023-11-21T21:52:02.756Z,1.47
2023-11-21T21:55:05.188Z,1.48
2023-11-21T21:58:08.034Z,1.47
2023-11-21T22:01:09.870Z,1.44
2023-11-21T22:04:12.110Z,1.45
2023-11-21T22:07:13.794Z,1.48
2023-11-21T22:10:15.355Z,1.48
2023-11-21T22:13:17.012Z,1.46
2023-11-21T22:16:18.661Z,1.46
2023-11-21T22:19:20.351Z,1.45
2023-11-21T22:22:22.844Z,1.43
2023-11-21T22:25:24.501Z,1.39
2023-11-21T22:28:25.985Z,1.41
2023-11-21T22:31:27.572Z,1.44
2023-11-21T22:34:29.113Z,1.41
2023-11-21T22:37:30.669Z,1.36
2023-11-21T22:40:32.147Z,1.39
2023-11-21T22:43:34.324Z,1.43
2023-11-21T22:46:45.050Z,1.42
2023-11-21T22:49:46.588Z,1.39
2023-11-21T22:52:50.055Z,1.39
2023-11-21T22:55:54.133Z,1.37
2023-11-21T22:58:56.755Z,1.35
2023-11-21T23:01:58.440Z,1.34
2023-11-21T23:05:00.002Z,1.33
2023-11-21T23:08:02.608Z,1.33
2023-11-21T23:11:05.315Z,1.34
2023-11-21T23:14:07.015Z,1.30
2023-11-21T23:17:09.008Z,1.19
2023-11-21T23:20:11.288Z,1.21
2023-11-21T23:23:13.926Z,1.20
2023-11-21T23:26:18.486Z,1.19
2023-11-21T23:29:20.174Z,1.19
2023-11-21T23:32:24.992Z,1.17
2023-11-21T23:35:26.697Z,1.12
2023-11-21T23:38:28.261Z,1.07
2023-11-21T23:41:29.988Z,1.08
2023-11-21T23:44:31.903Z,1.11
2023-11-21T23:47:33.833Z,1.10
2023-11-21T23:50:35.602Z,1.09
2023-11-21T23:53:37.294Z,1.10
2023-11-21T23:56:38.870Z,1.13
2023-11-21T23:59:40.467Z,1.14
